Time;durP1;ratioP1;P1;durP2;ratioP2;P2;SDS_P1;SDS_P2;PMS_P1;PMS_P2;Temp;Humidity;BMP_temperature;BMP_pressure;BME280_temperature;BME280_humidity;BME280_pressure;Samples;Min_cycle;Max_cycle;Signal;HPM_P1;HPM_P2
2022/05/12 00:02:19;;;;;;;;;;;;;;;16.46;60.11;99798.72;4319597;33;20043;-86
2022/05/12 00:04:44;;;;;;;;;;;;;;;16.52;60.10;99804.50;4332577;33;24947;-85
2022/05/12 00:07:09;;;;;;;;;;;;;;;16.50;60.10;99803.72;4331563;33;20010;-85
2022/05/12 00:09:34;;;;;;;;;;;;;;;16.63;60.11;99805.69;4332617;33;24007;-85
2022/05/12 00:12:00;;;;;;;;;;;;;;;16.50;60.10;99798.47;4319608;33;19980;-86
2022/05/12 00:14:25;;;;;;;;;;;;;;;16.42;60.09;99802.47;4331963;33;19984;-84
2022/05/12 00:16:50;;;;;;;;;;;;;;;16.46;60.10;99791.69;4333007;33;19995;-85
2022/05/12 00:19:15;;;;;;;;;;;;;;;16.69;60.10;99797.50;4331759;33;20318;-85
2022/05/12 00:21:41;;;;;;;;;;;;;;;16.51;60.10;99796.69;4333061;33;20003;-84
2022/05/12 00:24:06;;;;;;;;;;;;;;;16.49;60.10;99786.28;4330962;33;28127;-84
2022/05/12 00:26:32;;;;;;;;;;;;;;;16.39;60.10;99794.75;4332890;33;19984;-84
2022/05/12 00:28:58;;;;;;;;;;;;;;;16.37;60.09;99797.47;4331693;33;20010;-85
2022/05/12 00:31:24;;;;;;;;;;;;;;;16.40;60.10;99789.41;4331520;33;20025;-84
2022/05/12 00:33:49;;;;;;;;;;;;;;;16.40;60.10;99784.16;4332750;33;19968;-84
2022/05/12 00:36:14;;;;;;;;;;;;;;;16.44;60.09;99790.94;4331448;33;20341;-84
2022/05/12 00:38:39;;;;;;;;;;;;;;;16.25;60.09;99788.47;4332755;33;20336;-85
2022/05/12 00:41:05;;;;;;;;;;;;;;;16.18;60.08;99784.50;4331329;33;20051;-85
2022/05/12 00:43:48;;;;;;;;;;;;;;;16.17;60.08;99788.06;4331493;33;19991;-86
2022/05/12 00:46:15;;;;;;;;;;;;;;;16.42;60.09;99779.69;4319382;33;20353;-85
2022/05/12 00:48:40;;;;;;;;;;;;;;;16.31;60.08;99786.44;4332891;33;20055;-87
2022/05/12 00:51:06;;;;;;;;;;;;;;;16.36;60.09;99784.44;4331556;33;20353;-85
2022/05/12 00:53:31;;;;;;;;;;;;;;;16.39;60.08;99786.88;4331643;33;20000;-84
2022/05/12 00:55:56;;;;;;;;;;;;;;;16.42;60.09;99787.56;4344858;33;27217;-85
2022/05/12 00:58:22;;;;;;;;;;;;;;;16.41;60.09;99783.22;4345907;33;20055;-86
2022/05/12 01:00:47;;;;;;;;;;;;;;;16.20;60.08;99779.16;4332539;33;19987;-85
2022/05/12 01:03:18;;;;;;;;;;;;;;;16.32;60.09;99790.75;4346226;33;20000;-86
2022/05/12 01:05:43;;;;;;;;;;;;;;;16.24;60.08;99785.94;4333767;33;20051;-85
2022/05/12 01:08:09;;;;;;;;;;;;;;;16.15;60.07;99782.03;4333786;33;20317;-84
2022/05/12 01:10:35;;;;;;;;;;;;;;;16.16;60.08;99781.09;4345715;33;19984;-84
2022/05/12 01:13:00;;;;;;;;;;;;;;;16.14;60.08;99784.75;4345583;33;20595;-84
2022/05/12 01:15:25;;;;;;;;;;;;;;;16.04;60.07;99787.00;4333488;33;20034;-84
2022/05/12 01:18:00;;;;;;;;;;;;;;;16.18;60.08;99781.03;4348660;33;19975;-84
2022/05/12 01:20:26;;;;;;;;;;;;;;;16.02;60.07;99778.38;4347705;33;19999;-84
2022/05/12 01:22:56;;;;;;;;;;;;;;;15.87;60.07;99773.97;4347275;33;23986;-84
2022/05/12 01:25:22;;;;;;;;;;;;;;;16.02;60.07;99775.75;4343712;33;20007;-85
2022/05/12 01:27:48;;;;;;;;;;;;;;;15.95;60.07;99782.25;4334483;33;20369;-85
2022/05/12 01:30:13;;;;;;;;;;;;;;;16.09;60.07;99782.38;4345293;33;19976;-85
2022/05/12 01:32:39;;;;;;;;;;;;;;;16.04;60.07;99781.75;4334357;33;20271;-85
2022/05/12 01:35:04;;;;;;;;;;;;;;;16.07;60.07;99784.22;4334365;33;20027;-85
2022/05/12 01:37:30;;;;;;;;;;;;;;;15.96;60.07;99781.34;4345308;33;20266;-84
2022/05/12 01:39:55;;;;;;;;;;;;;;;16.11;60.08;99779.66;4334569;33;20007;-85
2022/05/12 01:42:20;;;;;;;;;;;;;;;16.09;60.08;99781.50;4334409;33;19980;-84
2022/05/12 01:44:45;;;;;;;;;;;;;;;16.02;60.08;99778.38;4354041;33;20016;-84
2022/05/12 01:47:11;;;;;;;;;;;;;;;15.97;60.06;99783.03;4334491;33;20360;-84
2022/05/12 01:49:36;;;;;;;;;;;;;;;15.71;60.06;99778.31;4333444;33;20320;-85
2022/05/12 01:52:02;;;;;;;;;;;;;;;16.01;60.07;99779.31;4332785;33;20243;-84
2022/05/12 01:54:27;;;;;;;;;;;;;;;15.98;60.06;99781.25;4338742;33;19983;-84
2022/05/12 01:56:52;;;;;;;;;;;;;;;15.94;60.07;99781.41;4347638;33;19987;-84
2022/05/12 01:59:18;;;;;;;;;;;;;;;16.00;60.07;99777.59;4347005;33;27718;-85
2022/05/12 02:01:44;;;;;;;;;;;;;;;15.71;60.05;99773.91;4348815;33;19979;-84
2022/05/12 02:04:10;;;;;;;;;;;;;;;15.85;60.05;99765.28;4347533;33;20047;-85
2022/05/12 02:06:35;;;;;;;;;;;;;;;15.88;60.07;99766.00;4335126;33;20031;-84
2022/05/12 02:09:00;;;;;;;;;;;;;;;15.98;60.06;99760.25;4347491;33;20006;-87
2022/05/12 02:11:25;;;;;;;;;;;;;;;15.78;60.06;99754.28;4334643;33;22797;-87
2022/05/12 02:13:51;;;;;;;;;;;;;;;15.89;60.06;99753.72;4347400;33;20018;-87
2022/05/12 02:16:16;;;;;;;;;;;;;;;16.04;60.07;99755.50;4335099;33;19991;-86
2022/05/12 02:18:43;;;;;;;;;;;;;;;16.06;60.07;99752.78;4346944;33;20324;-85
2022/05/12 02:21:08;;;;;;;;;;;;;;;16.04;60.07;99755.50;4334959;33;19971;-84
2022/05/12 02:23:33;;;;;;;;;;;;;;;16.04;60.07;99747.63;4347379;33;20034;-84
2022/05/12 02:25:58;;;;;;;;;;;;;;;16.03;60.06;99755.59;4334206;33;30224;-84
2022/05/12 02:28:24;;;;;;;;;;;;;;;15.76;60.05;99742.16;4347091;33;20034;-85
2022/05/12 02:30:49;;;;;;;;;;;;;;;15.89;60.06;99751.09;4347400;33;19990;-85
2022/05/12 02:33:14;;;;;;;;;;;;;;;15.96;60.06;99755.94;4334857;33;20039;-85
2022/05/12 02:35:39;;;;;;;;;;;;;;;15.97;60.06;99759.41;4334714;33;20266;-85
2022/05/12 02:38:05;;;;;;;;;;;;;;;15.76;60.05;99757.91;4347350;33;20015;-85
2022/05/12 02:40:31;;;;;;;;;;;;;;;15.72;60.05;99756.38;4334897;33;20538;-85
2022/05/12 02:42:57;;;;;;;;;;;;;;;15.84;60.05;99759.19;4347320;33;20006;-84
2022/05/12 02:45:22;;;;;;;;;;;;;;;15.79;60.06;99761.22;4348598;33;20014;-84
2022/05/12 02:47:47;;;;;;;;;;;;;;;15.70;60.04;99763.50;4347117;33;20031;-84
2022/05/12 02:50:13;;;;;;;;;;;;;;;15.60;60.04;99761.34;4347934;33;25712;-84
2022/05/12 02:52:38;;;;;;;;;;;;;;;15.71;60.05;99762.56;4347291;33;20043;-84
2022/05/12 02:55:03;;;;;;;;;;;;;;;15.60;60.04;99765.75;4338424;33;20032;-85
2022/05/12 02:57:29;;;;;;;;;;;;;;;15.52;60.03;99768.75;4333021;33;19988;-84
2022/05/12 02:59:54;;;;;;;;;;;;;;;15.68;60.04;99766.22;4320411;33;20263;-84
2022/05/12 03:02:19;;;;;;;;;;;;;;;15.55;60.04;99765.94;4334381;33;20002;-85
2022/05/12 03:04:44;;;;;;;;;;;;;;;15.41;60.04;99775.47;4332396;33;20050;-84
2022/05/12 03:07:10;;;;;;;;;;;;;;;15.49;60.04;99768.91;4333551;33;20384;-84
2022/05/12 03:09:35;;;;;;;;;;;;;;;15.40;60.03;99773.78;4333835;33;20003;-85
2022/05/12 03:12:01;;;;;;;;;;;;;;;15.36;60.03;99773.06;4332352;33;19992;-84
2022/05/12 03:14:26;;;;;;;;;;;;;;;15.36;60.03;99784.41;4333653;33;19999;-84
2022/05/12 03:16:53;;;;;;;;;;;;;;;15.28;60.02;99783.12;4332500;33;19987;-86
2022/05/12 03:19:18;;;;;;;;;;;;;;;15.41;60.04;99786.81;4334942;33;19994;-86
2022/05/12 03:21:44;;;;;;;;;;;;;;;15.34;60.03;99790.66;4321452;33;20321;-85
2022/05/12 03:24:09;;;;;;;;;;;;;;;15.31;60.04;99790.81;4333229;33;28657;-85
2022/05/12 03:26:34;;;;;;;;;;;;;;;15.47;60.04;99783.88;4332427;33;19992;-87
2022/05/12 03:28:59;;;;;;;;;;;;;;;15.42;60.04;99785.88;4333757;33;19972;-86
2022/05/12 03:31:24;;;;;;;;;;;;;;;15.31;60.03;99775.94;4332470;33;20472;-87
2022/05/12 03:33:50;;;;;;;;;;;;;;;15.38;60.03;99780.84;4320349;33;19995;-86
2022/05/12 03:36:15;;;;;;;;;;;;;;;15.41;60.04;99780.72;4332626;33;20020;-86
2022/05/12 03:38:41;;;;;;;;;;;;;;;15.47;60.03;99785.66;4336170;33;19992;-87
2022/05/12 03:41:06;;;;;;;;;;;;;;;15.64;60.05;99786.50;4347501;33;20002;-86
2022/05/12 03:46:16;;;;;;;;;;;;;;;15.58;60.04;99778.94;4333761;33;20356;-85
2022/05/12 03:48:41;;;;;;;;;;;;;;;15.66;60.05;99783.81;4332074;33;19996;-85
2022/05/12 03:51:06;;;;;;;;;;;;;;;15.75;60.05;99792.97;4333203;33;20003;-85
2022/05/12 03:53:32;;;;;;;;;;;;;;;15.94;60.06;99788.44;4333278;33;20296;-84
2022/05/12 03:55:58;;;;;;;;;;;;;;;15.90;60.06;99789.53;4345963;33;19983;-85
2022/05/12 03:58:24;;;;;;;;;;;;;;;15.93;60.07;99786.75;4348155;33;19994;-85
2022/05/12 04:00:49;;;;;;;;;;;;;;;15.90;60.05;99785.13;4346547;33;20055;-85
2022/05/12 04:03:15;;;;;;;;;;;;;;;16.04;60.06;99788.78;4346656;33;20012;-85
2022/05/12 04:05:40;;;;;;;;;;;;;;;16.10;60.07;99785.84;4346721;33;19984;-86
2022/05/12 04:08:05;;;;;;;;;;;;;;;16.14;60.07;99795.25;4347104;33;20280;-86
2022/05/12 04:10:32;;;;;;;;;;;;;;;16.20;60.07;99789.66;4335450;33;20015;-84
2022/05/12 04:12:57;;;;;;;;;;;;;;;16.35;60.09;99799.34;4332810;33;19991;-84
2022/05/12 04:15:23;;;;;;;;;;;;;;;16.44;60.09;99796.19;4332859;33;20298;-85
2022/05/12 04:17:55;;;;;;;;;;;;;;;16.41;60.09;99795.53;4332940;33;19987;-85
2022/05/12 04:20:20;;;;;;;;;;;;;;;16.55;60.10;99793.81;4332847;33;20014;-85
2022/05/12 04:22:45;;;;;;;;;;;;;;;16.76;60.10;99796.19;4332587;33;20019;-86
2022/05/12 04:25:11;;;;;;;;;;;;;;;16.55;60.10;99806.94;4319006;33;19992;-86
2022/05/12 04:27:36;;;;;;;;;;;;;;;16.71;60.11;99804.34;4307171;33;20397;-85
2022/05/12 04:30:01;;;;;;;;;;;;;;;16.83;60.10;99803.66;4319475;33;19980;-86
2022/05/12 04:32:27;;;;;;;;;;;;;;;16.92;60.11;99802.28;4332805;33;19991;-87
2022/05/12 04:35:11;;;;;;;;;;;;;;;17.03;60.12;99809.53;4332747;33;25895;-83
2022/05/12 04:37:36;;;;;;;;;;;;;;;17.39;60.14;99809.19;4319567;33;20480;-83
2022/05/12 04:40:05;;;;;;;;;;;;;;;17.24;60.13;99808.31;4333623;33;19984;-82
2022/05/12 04:42:30;;;;;;;;;;;;;;;17.35;60.13;99805.91;4333785;33;19998;-85
2022/05/12 04:44:56;;;;;;;;;;;;;;;17.48;60.14;99813.91;4319650;33;19991;-82
2022/05/12 04:47:21;;;;;;;;;;;;;;;17.64;60.15;99811.22;4332568;33;20856;-83
2022/05/12 04:49:46;;;;;;;;;;;;;;;17.72;60.15;99809.84;4307000;33;20026;-85
2022/05/12 04:52:12;;;;;;;;;;;;;;;18.01;60.17;99817.78;4332684;33;20016;-83
2022/05/12 04:54:38;;;;;;;;;;;;;;;18.09;60.17;99812.88;4326748;33;19995;-83
2022/05/12 04:57:04;;;;;;;;;;;;;;;18.35;60.19;99819.16;4349152;33;19998;-84
2022/05/12 04:59:29;;;;;;;;;;;;;;;18.46;60.19;99815.84;4347706;33;20007;-84
2022/05/12 05:01:54;;;;;;;;;;;;;;;18.50;60.19;99820.81;4347605;33;19995;-84
2022/05/12 05:04:20;;;;;;;;;;;;;;;18.61;60.19;99825.41;4348845;33;19990;-83
2022/05/12 05:06:45;;;;;;;;;;;;;;;18.84;60.21;99814.25;4348760;33;20019;-84
2022/05/12 05:09:11;;;;;;;;;;;;;;;18.69;60.20;99812.59;4348936;33;20059;-84
2022/05/12 05:11:37;;;;;;;;;;;;;;;18.93;60.22;99815.47;4348884;33;19983;-83
2022/05/12 05:14:03;;;;;;;;;;;;;;;18.89;60.22;99817.44;4349070;33;19998;-83
2022/05/12 05:16:29;;;;;;;;;;;;;;;19.01;60.22;99813.16;4323444;33;789744;-84
2022/05/12 05:18:54;;;;;;;;;;;;;;;19.38;60.24;99805.41;4349107;33;19990;-83
2022/05/12 05:21:19;;;;;;;;;;;;;;;19.73;60.26;99811.00;4349623;33;20369;-84
2022/05/12 05:23:45;;;;;;;;;;;;;;;20.01;60.28;99812.56;4348482;33;20396;-84
2022/05/12 05:26:10;;;;;;;;;;;;;;;20.24;60.29;99809.13;4348691;33;23245;-84
2022/05/12 05:28:36;;;;;;;;;;;;;;;20.41;60.30;99816.75;4348943;33;20074;-84
2022/05/12 05:31:02;;;;;;;;;;;;;;;20.38;60.29;99818.75;4347710;33;20001;-84
2022/05/12 05:33:27;;;;;;;;;;;;;;;20.51;60.30;99820.41;4348919;33;19976;-84
2022/05/12 05:35:52;;;;;;;;;;;;;;;20.62;60.32;99816.16;4354685;33;19999;-84
2022/05/12 05:38:17;;;;;;;;;;;;;;;20.89;60.32;99814.16;4352554;33;20010;-84
2022/05/12 05:40:42;;;;;;;;;;;;;;;20.93;60.32;99810.31;4348058;33;19991;-84
2022/05/12 05:43:08;;;;;;;;;;;;;;;21.00;60.32;99810.69;4348297;33;26295;-84
2022/05/12 05:45:33;;;;;;;;;;;;;;;20.93;60.32;99814.78;4338422;33;19972;-83
2022/05/12 05:48:00;;;;;;;;;;;;;;;21.25;60.34;99815.88;4334191;33;19983;-86
2022/05/12 05:50:27;;;;;;;;;;;;;;;21.46;60.35;99810.78;4320814;33;20276;-85
2022/05/12 05:55:36;;;;;;;;;;;;;;;21.83;60.37;99806.16;4334658;33;20006;-84
2022/05/12 05:58:02;;;;;;;;;;;;;;;21.72;60.37;99804.31;4347413;33;19984;-84
2022/05/12 06:00:27;;;;;;;;;;;;;;;21.90;60.37;99803.87;4347605;33;20368;-84
2022/05/12 06:02:53;;;;;;;;;;;;;;;22.10;60.39;99813.78;4334908;33;19979;-84
2022/05/12 06:05:18;;;;;;;;;;;;;;;22.25;60.40;99809.09;4348127;33;19999;-84
2022/05/12 06:07:43;;;;;;;;;;;;;;;22.33;60.41;99811.97;4348570;33;19994;-84
2022/05/12 06:10:09;;;;;;;;;;;;;;;22.43;60.40;99807.59;4348781;33;20021;-84
2022/05/12 06:12:34;;;;;;;;;;;;;;;22.71;60.41;99813.31;4347544;33;19993;-84
2022/05/12 06:15:00;;;;;;;;;;;;;;;22.83;60.42;99815.88;4344141;33;20329;-84
2022/05/12 06:17:26;;;;;;;;;;;;;;;22.88;60.43;99805.72;4334129;33;20452;-84
2022/05/12 06:19:51;;;;;;;;;;;;;;;23.05;60.44;99806.16;4333839;33;19988;-84
2022/05/12 06:22:19;;;;;;;;;;;;;;;23.04;60.44;99804.47;4333892;33;20047;-84
2022/05/12 06:24:44;;;;;;;;;;;;;;;23.31;60.46;99812.78;4333845;33;19984;-84
2022/05/12 06:27:09;;;;;;;;;;;;;;;23.30;60.45;99800.47;4345003;33;20325;-84
2022/05/12 06:29:36;;;;;;;;;;;;;;;23.32;60.44;99801.19;4332613;33;19996;-84
2022/05/12 06:32:02;;;;;;;;;;;;;;;23.54;60.46;99809.03;4333758;33;19991;-84
2022/05/12 06:34:27;;;;;;;;;;;;;;;23.73;60.46;99808.34;4333877;33;20340;-84
2022/05/12 06:36:54;;;;;;;;;;;;;;;23.82;60.48;99804.88;4344620;33;19992;-84
2022/05/12 06:39:19;;;;;;;;;;;;;;;23.92;60.48;99809.44;4333819;33;20015;-84
2022/05/12 06:41:44;;;;;;;;;;;;;;;24.14;60.50;99804.75;4333793;33;20074;-84
2022/05/12 06:44:10;;;;;;;;;;;;;;;24.27;60.50;99801.84;4333611;33;20071;-84
2022/05/12 06:46:36;;;;;;;;;;;;;;;24.32;60.50;99806.81;4344677;33;20007;-84
2022/05/12 06:49:03;;;;;;;;;;;;;;;24.59;60.51;99815.00;4332398;33;20017;-84
2022/05/12 06:51:28;;;;;;;;;;;;;;;24.79;60.52;99816.72;4344436;33;20297;-84
2022/05/12 06:53:55;;;;;;;;;;;;;;;24.93;60.53;99822.62;4345941;33;20015;-85
2022/05/12 06:56:20;;;;;;;;;;;;;;;25.06;60.53;99823.22;4334750;33;20026;-84
2022/05/12 06:58:45;;;;;;;;;;;;;;;25.31;60.55;99814.66;4348364;33;20384;-84
2022/05/12 07:01:11;;;;;;;;;;;;;;;25.45;60.55;99808.06;4334636;33;20035;-84
2022/05/12 07:03:37;;;;;;;;;;;;;;;25.45;60.55;99809.87;4347211;33;20011;-84
2022/05/12 07:06:03;;;;;;;;;;;;;;;25.57;60.56;99809.59;4347259;33;20055;-84
2022/05/12 07:08:28;;;;;;;;;;;;;;;25.57;60.56;99801.59;4347073;33;19999;-84
2022/05/12 07:10:53;;;;;;;;;;;;;;;25.70;60.56;99801.31;4334025;33;31569;-84
2022/05/12 07:13:20;;;;;;;;;;;;;;;25.78;60.59;99804.06;4346983;33;20006;-84
2022/05/12 07:15:49;;;;;;;;;;;;;;;25.96;60.58;99796.16;4346333;33;20276;-84
2022/05/12 07:18:15;;;;;;;;;;;;;;;25.98;60.59;99802.19;4346835;33;20010;-85
2022/05/12 07:28:52;;;;;;;;;;;;;;;26.56;60.62;99802.78;4348352;33;20029;-84
2022/05/12 07:31:17;;;;;;;;;;;;;;;26.59;60.62;99804.31;4348524;33;26249;-84
2022/05/12 07:33:43;;;;;;;;;;;;;;;26.60;60.62;99803.31;4348729;33;24056;-84
2022/05/12 07:36:10;;;;;;;;;;;;;;;26.38;60.61;99804.56;4334512;33;20011;-84
2022/05/12 07:38:36;;;;;;;;;;;;;;;26.53;60.61;99797.75;4348234;33;19991;-84
2022/05/12 07:41:01;;;;;;;;;;;;;;;26.69;60.62;99801.56;4348179;33;19999;-84
2022/05/12 07:43:26;;;;;;;;;;;;;;;26.81;60.63;99795.03;4334422;33;20314;-84
2022/05/12 07:45:51;;;;;;;;;;;;;;;26.81;60.63;99795.87;4333849;33;30448;-84
2022/05/12 07:48:17;;;;;;;;;;;;;;;26.84;60.63;99792.91;4347046;33;20002;-84
2022/05/12 07:50:42;;;;;;;;;;;;;;;27.13;60.65;99790.00;4334572;33;20297;-84
2022/05/12 07:53:07;;;;;;;;;;;;;;;27.24;60.65;99788.94;4348213;33;19991;-84
2022/05/12 07:55:33;;;;;;;;;;;;;;;27.26;60.65;99788.78;4344388;33;20055;-84
2022/05/12 07:57:58;;;;;;;;;;;;;;;27.40;60.67;99789.06;4333511;33;19980;-84
2022/05/12 08:00:24;;;;;;;;;;;;;;;27.41;60.66;99790.72;4333452;33;20230;-84
2022/05/12 08:02:50;;;;;;;;;;;;;;;27.69;60.68;99791.47;4344438;33;19990;-84
2022/05/12 08:05:15;;;;;;;;;;;;;;;27.78;60.68;99792.38;4333375;33;19996;-84
2022/05/12 08:07:42;;;;;;;;;;;;;;;27.73;60.68;99798.19;4331979;33;20326;-84
2022/05/12 08:10:07;;;;;;;;;;;;;;;28.05;60.70;99797.53;4333274;33;19980;-84
2022/05/12 08:12:33;;;;;;;;;;;;;;;28.08;60.70;99797.19;4344361;33;19979;-85
2022/05/12 08:14:58;;;;;;;;;;;;;;;28.30;60.71;99801.16;4331962;33;20689;-84
2022/05/12 08:17:24;;;;;;;;;;;;;;;28.40;60.72;99795.69;4333232;33;20008;-84
2022/05/12 08:19:49;;;;;;;;;;;;;;;28.58;60.72;99800.94;4333514;33;20301;-85
2022/05/12 08:22:15;;;;;;;;;;;;;;;28.68;60.74;99797.13;4331853;33;20006;-84
2022/05/12 08:24:40;;;;;;;;;;;;;;;28.88;60.74;99795.00;4333503;33;19980;-84
2022/05/12 08:27:05;;;;;;;;;;;;;;;29.03;60.74;99796.00;4344146;33;20301;-84
2022/05/12 08:29:31;;;;;;;;;;;;;;;28.96;60.74;99791.50;4332977;33;19987;-84
2022/05/12 08:31:56;;;;;;;;;;;;;;;29.16;60.76;99795.53;4343444;33;27612;-84
2022/05/12 08:34:21;;;;;;;;;;;;;;;29.55;60.77;99792.16;4332744;33;20478;-84
2022/05/12 08:36:49;;;;;;;;;;;;;;;29.70;60.78;99786.97;4332966;33;19995;-84
2022/05/12 08:39:14;;;;;;;;;;;;;;;29.79;60.78;99785.91;4333023;33;20051;-84
2022/05/12 08:41:46;;;;;;;;;;;;;;;30.08;60.80;99785.38;4332938;33;20063;-85
2022/05/12 08:44:14;;;;;;;;;;;;;;;30.24;60.80;99791.50;4332959;33;19995;-84
2022/05/12 08:46:40;;;;;;;;;;;;;;;30.43;60.81;99789.41;4343703;33;20050;-84
2022/05/12 08:49:25;;;;;;;;;;;;;;;30.51;60.81;99795.56;4331314;33;20003;-84
2022/05/12 08:51:52;;;;;;;;;;;;;;;30.50;60.81;99793.06;4329679;33;19989;-84
2022/05/12 08:54:18;;;;;;;;;;;;;;;30.82;60.83;99792.91;4336520;33;20047;-85
2022/05/12 08:56:44;;;;;;;;;;;;;;;31.02;60.85;99787.06;4346167;33;20011;-84
2022/05/12 08:59:09;;;;;;;;;;;;;;;31.12;60.86;99790.31;4346392;33;20250;-85
2022/05/12 09:01:55;;;;;;;;;;;;;;;31.15;60.85;99792.66;4346760;33;32751;-85
2022/05/12 09:04:26;;;;;;;;;;;;;;;31.36;60.86;99790.16;4346034;33;19992;-84
2022/05/12 09:06:57;;;;;;;;;;;;;;;31.55;60.88;99783.41;4347203;33;20039;-84
2022/05/12 09:09:23;;;;;;;;;;;;;;;31.49;60.88;99783.31;4345789;33;20061;-83
2022/05/12 09:11:57;;;;;;;;;;;;;;;31.61;60.87;99788.06;4346918;33;20362;-83
2022/05/12 09:14:35;;;;;;;;;;;;;;;31.67;60.88;99791.88;4345720;33;20011;-82
2022/05/12 09:17:01;;;;;;;;;;;;;;;31.71;60.89;99793.19;4345742;33;20050;-82
2022/05/12 09:19:26;;;;;;;;;;;;;;;31.89;60.90;99788.28;4346303;33;25990;-82
2022/05/12 09:21:51;;;;;;;;;;;;;;;32.06;60.90;99789.78;4333049;33;20245;-82
2022/05/12 09:24:16;;;;;;;;;;;;;;;32.10;60.90;99787.53;4332603;33;32029;-82
2022/05/12 09:26:43;;;;;;;;;;;;;;;32.10;60.90;99789.41;4346875;33;19987;-83
2022/05/12 09:29:23;;;;;;;;;;;;;;;32.28;60.91;99790.72;4333754;33;19975;-81
2022/05/12 09:32:03;;;;;;;;;;;;;;;32.40;60.91;99796.44;4321155;33;20039;-82
2022/05/12 09:34:30;;;;;;;;;;;;;;;32.40;60.92;99798.31;4346678;33;20014;-82
2022/05/12 09:36:55;;;;;;;;;;;;;;;32.48;60.92;99795.53;4346853;33;19998;-82
2022/05/12 09:39:31;;;;;;;;;;;;;;;32.57;60.92;99797.91;4349015;33;20336;-82
2022/05/12 09:41:56;;;;;;;;;;;;;;;32.80;60.93;99795.06;4335487;33;20302;-83
2022/05/12 09:44:26;;;;;;;;;;;;;;;32.91;60.95;99797.28;4335118;33;20345;-83
2022/05/12 09:47:15;;;;;;;;;;;;;;;32.95;60.94;99795.87;4348801;33;20611;-82
2022/05/12 09:49:41;;;;;;;;;;;;;;;32.80;60.93;99789.69;4342758;33;19979;-82
2022/05/12 09:52:26;;;;;;;;;;;;;;;32.89;60.94;99793.13;4335141;33;20309;-83
2022/05/12 09:55:12;;;;;;;;;;;;;;;33.06;60.95;99778.31;4348607;33;19987;-82
2022/05/12 09:57:43;;;;;;;;;;;;;;;33.28;60.96;99782.66;4335832;33;20047;-82
2022/05/12 10:00:10;;;;;;;;;;;;;;;33.36;60.97;99784.44;4348946;33;19980;-83
2022/05/12 10:08:10;;;;;;;;;;;;;;;33.68;60.99;99766.81;4337147;33;19998;-83
2022/05/12 10:10:35;;;;;;;;;;;;;;;33.75;60.98;99762.28;4335090;33;19980;-83
2022/05/12 10:13:03;;;;;;;;;;;;;;;33.67;60.99;99765.13;4334852;33;20010;-83
2022/05/12 10:15:30;;;;;;;;;;;;;;;33.92;60.99;99764.69;4335239;33;19999;-83
2022/05/12 10:18:00;;;;;;;;;;;;;;;33.93;60.99;99751.00;4322993;33;20049;-83
2022/05/12 10:20:26;;;;;;;;;;;;;;;34.06;61.00;99752.91;4348649;33;19997;-83
2022/05/12 10:22:53;;;;;;;;;;;;;;;34.12;61.01;99744.84;4335130;33;20035;-83
2022/05/12 10:25:36;;;;;;;;;;;;;;;34.05;61.01;99751.22;4335034;33;19991;-83
2022/05/12 10:28:20;;;;;;;;;;;;;;;34.13;61.01;99748.38;4348628;33;20002;-83
2022/05/12 10:30:57;;;;;;;;;;;;;;;34.36;61.02;99745.38;4348519;33;19979;-83
2022/05/12 10:33:38;;;;;;;;;;;;;;;34.42;61.02;99742.69;4335078;33;20339;-83
2022/05/12 10:36:04;;;;;;;;;;;;;;;34.42;61.02;99744.56;4348441;33;20343;-84
2022/05/12 10:38:29;;;;;;;;;;;;;;;34.33;61.01;99733.09;4348350;33;20002;-83
2022/05/12 10:40:59;;;;;;;;;;;;;;;34.54;61.03;99744.78;4346980;33;20038;-83
2022/05/12 10:43:27;;;;;;;;;;;;;;;34.71;61.04;99735.25;4348447;33;19967;-83
2022/05/12 10:45:55;;;;;;;;;;;;;;;34.90;61.04;99737.19;4348546;33;19995;-84
2022/05/12 10:48:20;;;;;;;;;;;;;;;34.94;61.04;99729.50;4334621;33;20069;-84
2022/05/12 10:50:56;;;;;;;;;;;;;;;34.99;61.04;99744.06;4347774;33;20330;-84
2022/05/12 10:53:39;;;;;;;;;;;;;;;35.07;61.05;99729.50;4322664;33;20345;-83
2022/05/12 10:56:08;;;;;;;;;;;;;;;35.24;61.05;99741.56;4320096;33;20405;-84
2022/05/12 10:58:52;;;;;;;;;;;;;;;35.18;61.06;99742.41;4320050;33;20350;-84
2022/05/12 11:01:19;;;;;;;;;;;;;;;35.27;61.06;99740.34;4332212;33;20026;-84
2022/05/12 11:03:48;;;;;;;;;;;;;;;35.29;61.06;99733.66;4332282;33;20239;-83
2022/05/12 11:06:14;;;;;;;;;;;;;;;35.22;61.06;99727.41;4320022;33;20008;-83
2022/05/12 11:08:42;;;;;;;;;;;;;;;35.32;61.06;99713.47;4332149;33;20063;-84
2022/05/12 11:11:09;;;;;;;;;;;;;;;35.30;61.06;99723.69;4319964;33;19988;-83
2022/05/12 11:13:48;;;;;;;;;;;;;;;35.06;61.05;99714.31;4332392;33;20027;-84
2022/05/12 11:16:14;;;;;;;;;;;;;;;34.74;61.03;99714.06;4332240;33;20010;-84
2022/05/12 11:18:49;;;;;;;;;;;;;;;34.64;61.04;99707.41;4333657;33;20260;-84
2022/05/12 11:21:15;;;;;;;;;;;;;;;34.74;61.03;99714.06;4333511;33;19998;-84
2022/05/12 11:24:11;;;;;;;;;;;;;;;34.67;61.03;99706.97;4333591;33;20438;-84
2022/05/12 11:26:52;;;;;;;;;;;;;;;34.67;61.03;99704.28;4326869;33;20606;-84
2022/05/12 11:32:20;;;;;;;;;;;;;;;34.31;61.01;99712.69;4333569;33;20326;-84
2022/05/12 11:34:46;;;;;;;;;;;;;;;34.03;61.00;99707.38;4333416;33;20418;-84
2022/05/12 11:37:27;;;;;;;;;;;;;;;34.02;61.00;99700.31;4332097;33;19999;-84
2022/05/12 11:39:54;;;;;;;;;;;;;;;34.11;61.01;99697.25;4333614;33;19996;-84
2022/05/12 11:44:23;;;;;;;;;;;;;;;33.99;61.00;99701.56;4332001;33;20110;-84
2022/05/12 11:45:51;;;;;;;;;;;;;;;34.06;61.01;99694.31;4332167;33;19983;-83
2022/05/12 11:48:35;;;;;;;;;;;;;;;34.09;61.00;99693.94;4297133;33;20460;-84
2022/05/12 11:51:20;;;;;;;;;;;;;;;34.26;61.01;99693.53;4333399;33;19979;-84
2022/05/12 11:53:59;;;;;;;;;;;;;;;34.60;61.04;99690.75;4333959;33;20330;-84
2022/05/12 11:56:40;;;;;;;;;;;;;;;34.85;61.04;99688.31;4346951;33;19979;-84
2022/05/12 11:59:33;;;;;;;;;;;;;;;34.96;61.05;99689.53;4348061;33;19999;-84
2022/05/12 12:01:58;;;;;;;;;;;;;;;34.73;61.03;99693.47;4333420;33;20019;-84
2022/05/12 12:04:43;;;;;;;;;;;;;;;34.72;61.04;99688.25;4347938;33;19979;-84
2022/05/12 12:07:16;;;;;;;;;;;;;;;34.85;61.03;99684.78;4346646;33;19971;-84
2022/05/12 12:09:44;;;;;;;;;;;;;;;34.96;61.05;99690.38;4346750;33;20010;-84
2022/05/12 12:12:10;;;;;;;;;;;;;;;34.75;61.03;99687.84;4347833;33;19999;-84
2022/05/12 12:14:50;;;;;;;;;;;;;;;34.60;61.02;99689.94;4346493;33;19990;-84
2022/05/12 12:17:25;;;;;;;;;;;;;;;34.50;61.03;99689.47;4334137;33;19984;-83
2022/05/12 12:19:52;;;;;;;;;;;;;;;34.72;61.04;99690.97;4347766;33;19984;-84
2022/05/12 12:22:22;;;;;;;;;;;;;;;34.81;61.04;99691.59;4333928;33;20337;-84
2022/05/12 12:24:53;;;;;;;;;;;;;;;34.87;61.05;99680.81;4346244;33;20038;-84
2022/05/12 12:27:29;;;;;;;;;;;;;;;35.15;61.06;99669.75;4347664;33;19987;-84
2022/05/12 12:29:54;;;;;;;;;;;;;;;35.24;61.07;99671.19;4346488;33;20042;-84
2022/05/12 12:32:26;;;;;;;;;;;;;;;35.26;61.07;99676.44;4345960;33;20015;-83
2022/05/12 12:34:52;;;;;;;;;;;;;;;35.09;61.06;99670.63;4347526;33;20036;-84
2022/05/12 12:37:36;;;;;;;;;;;;;;;34.95;61.06;99675.19;4333897;33;19983;-84
2022/05/12 12:40:01;;;;;;;;;;;;;;;34.87;61.05;99685.41;4334215;33;20277;-84
2022/05/12 12:42:39;;;;;;;;;;;;;;;34.76;61.05;99682.22;4346143;33;20035;-84
2022/05/12 12:45:04;;;;;;;;;;;;;;;34.65;61.03;99674.75;4346296;33;19990;-84
2022/05/12 12:47:39;;;;;;;;;;;;;;;34.59;61.04;99664.75;4333624;33;20019;-84
2022/05/12 12:50:07;;;;;;;;;;;;;;;34.64;61.04;99661.44;4333855;33;19987;-83
2022/05/12 12:52:38;;;;;;;;;;;;;;;34.47;61.03;99659.13;4333767;33;20042;-84
2022/05/12 12:57:49;;;;;;;;;;;;;;;34.89;61.05;99658.97;4347334;33;20580;-84
2022/05/12 13:00:16;;;;;;;;;;;;;;;34.92;61.05;99648.56;4347064;33;19991;-84
2022/05/12 13:02:42;;;;;;;;;;;;;;;35.06;61.05;99655.63;4345949;33;20408;-84
2022/05/12 13:05:09;;;;;;;;;;;;;;;34.96;61.05;99646.25;4347194;33;20388;-84
2022/05/12 13:07:34;;;;;;;;;;;;;;;35.01;61.06;99649.16;4347064;33;19968;-84
2022/05/12 13:10:01;;;;;;;;;;;;;;;34.99;61.05;99648.53;4345971;33;20007;-84
2022/05/12 13:12:26;;;;;;;;;;;;;;;34.80;61.05;99652.91;4346302;33;19988;-85
2022/05/12 13:14:52;;;;;;;;;;;;;;;34.59;61.04;99650.41;4349110;33;19979;-84
2022/05/12 13:17:18;;;;;;;;;;;;;;;34.47;61.03;99633.97;4347905;33;19994;-84